Time;durP1;ratioP1;P1;durP2;ratioP2;P2;SDS_P1;SDS_P2;PMS_P1;PMS_P2;Temp;Humidity;BMP_temperature;BMP_pressure;BME280_temperature;BME280_humidity;BME280_pressure;Samples;Min_cycle;Max_cycle;Signal;HPM_P1;HPM_P2
2022/05/26 00:01:32;;;;;;;3.47;3.28;;;;;;;11.83;100.00;100703.56;5019533;28;20045;-80
2022/05/26 00:04:05;;;;;;;3.80;3.50;;;;;;;11.78;100.00;100698.97;5028174;28;20060;-80
2022/05/26 00:06:40;;;;;;;3.97;3.67;;;;;;;11.85;100.00;100706.81;5023646;28;20053;-80
2022/05/26 00:09:13;;;;;;;4.22;3.85;;;;;;;11.84;100.00;100708.72;5020973;28;20406;-79
2022/05/26 00:11:46;;;;;;;4.60;4.20;;;;;;;11.89;100.00;100700.50;5029769;28;20045;-79
2022/05/26 00:14:19;;;;;;;4.68;4.22;;;;;;;11.85;100.00;100696.72;5019301;28;20053;-79
2022/05/26 00:16:53;;;;;;;4.28;3.88;;;;;;;11.85;100.00;100688.53;5020291;28;20137;-79
2022/05/26 00:19:26;;;;;;;4.40;4.00;;;;;;;11.84;100.00;100689.63;5024219;28;20046;-79
2022/05/26 00:22:01;;;;;;;5.47;5.07;;;;;;;11.85;100.00;100693.19;5030104;28;20062;-79
2022/05/26 00:24:34;;;;;;;5.07;4.68;;;;;;;11.83;100.00;100684.47;5029080;28;20041;-79
2022/05/26 00:27:08;;;;;;;5.93;5.43;;;;;;;11.85;100.00;100691.25;5020989;28;20049;-79
2022/05/26 00:29:36;;;;;;;5.78;5.28;;;;;;;11.85;100.00;100683.09;5026777;28;20414;-80
2022/05/26 00:32:10;;;;;;;6.90;6.30;;;;;;;11.88;100.00;100687.16;5021655;28;20049;-80
2022/05/26 00:34:43;;;;;;;6.60;6.10;;;;;;;11.89;100.00;100677.84;5025270;28;20045;-79
2022/05/26 00:37:18;;;;;;;6.90;6.38;;;;;;;11.86;100.00;100682.00;5028372;28;20049;-79
2022/05/26 00:39:46;;;;;;;7.00;6.50;;;;;;;11.84;100.00;100675.19;5017300;28;20142;-79
2022/05/26 00:42:19;;;;;;;8.00;7.40;;;;;;;11.85;100.00;100671.38;5017634;28;20049;-80
2022/05/26 00:44:48;;;;;;;8.50;7.90;;;;;;;11.86;100.00;100673.81;5023543;28;20057;-80
2022/05/26 00:47:24;;;;;;;7.90;7.32;;;;;;;11.87;100.00;100667.22;5014516;28;20069;-79
2022/05/26 00:50:02;;;;;;;8.93;8.23;;;;;;;11.88;100.00;100670.78;5024627;28;20498;-79
2022/05/26 00:52:42;;;;;;;8.25;7.65;;;;;;;11.97;100.00;100676.44;5021876;28;20486;-80
2022/05/26 00:55:20;;;;;;;8.00;7.35;;;;;;;11.95;100.00;100679.47;5014352;28;20058;-79
2022/05/26 00:57:59;;;;;;;8.40;7.80;;;;;;;11.84;100.00;100676.00;5020184;28;20060;-79
2022/05/26 01:00:36;;;;;;;9.75;8.95;;;;;;;11.93;100.00;100680.81;5026595;28;20053;-80
2022/05/26 01:03:17;;;;;;;10.10;9.40;;;;;;;11.97;100.00;100673.72;5023759;28;20045;-79
2022/05/26 01:05:54;;;;;;;9.07;8.43;;;;;;;12.00;100.00;100675.84;5026523;28;20057;-81
2022/05/26 01:08:35;;;;;;;10.18;9.48;;;;;;;11.91;100.00;100660.09;5026247;28;20057;-80
2022/05/26 01:11:09;;;;;;;9.25;8.63;;;;;;;12.01;100.00;100680.22;5015093;28;20053;-79
2022/05/26 01:13:45;;;;;;;10.45;9.75;;;;;;;11.97;100.00;100679.97;5019865;28;20053;-79
2022/05/26 01:16:27;;;;;;;10.35;9.65;;;;;;;12.02;100.00;100679.94;5018976;28;20060;-80
2022/05/26 01:19:22;;;;;;;10.10;9.40;;;;;;;12.02;100.00;100687.31;5021682;28;20057;-80
2022/05/26 01:22:00;;;;;;;10.30;9.60;;;;;;;12.08;100.00;100688.88;5021962;28;20478;-79
2022/05/26 01:25:07;;;;;;;10.02;9.32;;;;;;;12.08;100.00;100686.13;5027858;28;20057;-79
2022/05/26 01:27:44;;;;;;;10.65;9.95;;;;;;;12.05;100.00;100689.44;5021223;28;20053;-79
2022/05/26 01:30:23;;;;;;;10.30;9.60;;;;;;;12.12;100.00;100686.38;5025670;28;20060;-79
2022/05/26 01:33:32;;;;;;;10.23;9.52;;;;;;;12.10;100.00;100686.69;5019211;28;20061;-79
2022/05/26 01:36:16;;;;;;;10.43;9.73;;;;;;;12.16;100.00;100690.16;5026595;28;20049;-79
2022/05/26 01:39:03;;;;;;;9.25;8.60;;;;;;;12.10;100.00;100689.41;5024649;28;20045;-79
2022/05/26 01:41:47;;;;;;;9.05;8.35;;;;;;;12.08;100.00;100697.06;5021324;28;20052;-80
2022/05/26 01:44:28;;;;;;;10.50;9.80;;;;;;;12.13;100.00;100688.00;5019764;28;20402;-79
2022/05/26 01:47:09;;;;;;;9.93;9.23;;;;;;;12.18;100.00;100690.66;5017741;28;20398;-79
2022/05/26 01:49:48;;;;;;;10.40;9.70;;;;;;;12.15;100.00;100692.09;5026773;28;20049;-79
2022/05/26 01:52:30;;;;;;;11.40;10.60;;;;;;;12.12;100.00;100697.28;5031517;28;20053;-79
2022/05/26 01:55:09;;;;;;;10.85;10.15;;;;;;;12.17;100.00;100692.59;5036921;28;20876;-79
2022/05/26 01:57:46;;;;;;;10.95;10.18;;;;;;;12.18;100.00;100694.22;5017858;28;20528;-80
2022/05/26 02:00:20;;;;;;;9.57;8.88;;;;;;;12.22;100.00;100692.53;5018764;28;20512;-79
2022/05/26 02:02:56;;;;;;;10.73;9.95;;;;;;;12.15;100.00;100680.34;5026059;28;20045;-80
2022/05/26 02:05:35;;;;;;;10.97;10.23;;;;;;;12.23;100.00;100685.97;5025024;28;20068;-80
2022/05/26 02:08:13;;;;;;;10.10;9.40;;;;;;;12.13;100.00;100680.63;5023256;28;20403;-79
2022/05/26 02:10:48;;;;;;;;;;;;;;;12.12;100.00;100679.00;5025790;28;20050;-79
2022/05/26 02:13:28;;;;;;;10.30;9.60;;;;;;;12.11;100.00;100680.13;5025788;28;19925;-79
2022/05/26 02:16:06;;;;;;;11.55;10.75;;;;;;;12.14;100.00;100682.25;5021516;28;20053;-80
2022/05/26 02:18:44;;;;;;;12.88;12.07;;;;;;;12.21;100.00;100679.19;5025151;28;20052;-79
2022/05/26 02:21:24;;;;;;;12.80;11.90;;;;;;;12.24;100.00;100675.88;5022347;28;20049;-79
2022/05/26 02:24:03;;;;;;;12.77;11.88;;;;;;;12.23;100.00;100683.22;5026805;28;20407;-79
2022/05/26 02:26:38;;;;;;;13.48;12.48;;;;;;;12.28;100.00;100668.72;5014880;28;20070;-79
2022/05/26 02:32:05;;;;;;;15.73;14.73;;;;;;;12.30;100.00;100676.63;5016742;28;20057;-79
2022/05/26 02:34:35;;;;;;;16.08;15.07;;;;;;;12.25;100.00;100677.50;5027953;28;20089;-79
2022/05/26 02:37:09;;;;;;;17.45;16.35;;;;;;;12.36;100.00;100692.66;5024025;28;20117;-79
2022/05/26 02:39:42;;;;;;;17.40;16.30;;;;;;;12.35;100.00;100685.56;5026164;28;20065;-79
2022/05/26 02:42:15;;;;;;;16.15;15.15;;;;;;;12.35;100.00;100682.03;5022333;28;20048;-79
2022/05/26 02:44:49;;;;;;;17.63;16.52;;;;;;;12.34;100.00;100692.09;5020534;28;20061;-79
2022/05/26 02:47:43;;;;;;;18.67;17.48;;;;;;;12.34;100.00;100681.19;5021062;28;20524;-80
2022/05/26 02:50:31;;;;;;;17.33;16.23;;;;;;;12.35;100.00;100692.94;5024514;28;20057;-79
2022/05/26 02:53:17;;;;;;;17.80;16.70;;;;;;;12.37;100.00;100693.44;5024066;28;20481;-79
2022/05/26 02:56:00;;;;;;;18.25;17.15;;;;;;;12.35;100.00;100692.94;5017924;28;20050;-79
2022/05/26 02:58:41;;;;;;;18.05;16.92;;;;;;;12.36;100.00;100694.53;5023422;28;20049;-79
2022/05/26 03:01:22;;;;;;;20.33;18.98;;;;;;;12.43;100.00;100703.22;5022225;28;20042;-79
2022/05/26 03:04:03;;;;;;;19.98;18.73;;;;;;;12.43;100.00;100692.31;5024260;28;20049;-79
2022/05/26 03:06:41;;;;;;;21.20;19.95;;;;;;;12.44;100.00;100691.16;5030912;28;20053;-79
2022/05/26 03:09:17;;;;;;;20.58;19.38;;;;;;;12.45;100.00;100686.53;5029247;28;20060;-79
2022/05/26 03:11:52;;;;;;;22.33;20.92;;;;;;;12.38;100.00;100686.91;5021520;28;20044;-79
2022/05/26 03:14:27;;;;;;;25.27;23.83;;;;;;;12.44;100.00;100690.38;5042313;28;20046;-80
2022/05/26 03:16:55;;;;;;;26.05;24.55;;;;;;;12.44;100.00;100702.09;5021618;28;20045;-79
2022/05/26 03:19:31;;;;;;;26.63;25.10;;;;;;;12.45;100.00;100700.19;5020387;28;20045;-80
2022/05/26 03:22:04;;;;;;;24.40;23.00;;;;;;;12.47;100.00;100690.59;5024382;28;20049;-79
2022/05/26 03:24:39;;;;;;;26.60;25.05;;;;;;;12.47;100.00;100696.06;5019119;28;20052;-79
2022/05/26 03:27:13;;;;;;;24.20;22.80;;;;;;;12.46;100.00;100707.28;5024120;28;20508;-79
2022/05/26 03:29:46;;;;;;;25.42;23.95;;;;;;;12.50;100.00;100702.88;5040748;28;20069;-79
2022/05/26 03:32:20;;;;;;;25.90;24.40;;;;;;;12.49;100.00;100693.03;5026073;28;20050;-80
2022/05/26 03:40:53;;;;;;;28.90;27.25;;;;;;;12.54;100.00;100699.25;5028094;28;20658;-80
2022/05/26 03:43:29;;;;;;;28.95;27.30;;;;;;;12.54;100.00;100701.97;5028825;28;20064;-79
2022/05/26 03:46:04;;;;;;;31.70;29.95;;;;;;;12.51;100.00;100705.31;5026776;28;20048;-81
2022/05/26 03:48:32;;;;;;;34.08;32.10;;;;;;;12.48;100.00;100694.13;5020692;28;20057;-80
2022/05/26 03:51:00;;;;;;;34.45;32.53;;;;;;;12.52;100.00;100704.16;5027818;28;20064;-80
2022/05/26 03:53:34;;;;;;;33.85;31.92;;;;;;;12.52;100.00;100692.44;5024514;28;20050;-80
2022/05/26 03:56:08;;;;;;;32.88;31.02;;;;;;;12.55;100.00;100700.88;5022559;28;20041;-79
2022/05/26 03:58:42;;;;;;;32.28;30.45;;;;;;;12.57;100.00;100704.13;5024067;28;20056;-80
2022/05/26 04:01:15;;;;;;;36.65;34.60;;;;;;;12.56;100.00;100712.59;5030170;28;20049;-79
2022/05/26 04:03:49;;;;;;;36.42;34.40;;;;;;;12.52;100.00;100709.63;5028121;28;20049;-80
2022/05/26 04:06:22;;;;;;;37.33;35.22;;;;;;;12.46;100.00;100713.53;5022244;28;20041;-79
2022/05/26 04:08:55;;;;;;;34.28;32.38;;;;;;;12.44;100.00;100709.47;5025303;28;20059;-80
2022/05/26 04:11:30;;;;;;;36.55;34.55;;;;;;;12.40;100.00;100707.34;5049879;28;20062;-80
2022/05/26 04:14:04;;;;;;;40.33;38.10;;;;;;;12.44;100.00;100709.47;5026189;28;20041;-80
2022/05/26 04:16:37;;;;;;;42.20;39.85;;;;;;;12.42;100.00;100705.13;5029776;28;20685;-80
2022/05/26 04:19:11;;;;;;;48.40;45.70;;;;;;;12.44;100.00;100706.75;5026953;28;20402;-80
2022/05/26 04:24:31;;;;;;;;;;;;;;;12.49;100.00;100720.34;5023268;28;20065;-79
2022/05/26 04:27:00;;;;;;;44.47;42.05;;;;;;;12.54;100.00;100721.09;5026552;28;20365;-80
2022/05/26 04:29:35;;;;;;;52.15;49.30;;;;;;;12.59;100.00;100725.66;5022152;28;20051;-79
2022/05/26 04:32:09;;;;;;;56.92;53.83;;;;;;;12.88;100.00;100730.19;5029245;28;20037;-80
2022/05/26 04:34:45;;;;;;;73.95;70.00;;;;;;;12.96;100.00;100718.63;5019398;28;20061;-79
2022/05/26 04:37:20;;;;;;;83.80;79.32;;;;;;;12.99;100.00;100719.94;5022208;28;20057;-80
2022/05/26 04:39:50;;;;;;;63.92;60.35;;;;;;;12.98;100.00;100718.31;5024563;28;20056;-80
2022/05/26 04:42:26;;;;;;;57.63;54.47;;;;;;;12.90;100.00;100717.88;5027097;28;20053;-80
2022/05/26 04:44:59;;;;;;;54.90;51.83;;;;;;;12.93;100.00;100713.75;5030552;28;20045;-81
2022/05/26 04:47:32;;;;;;;55.85;52.72;;;;;;;12.87;100.00;100704.00;5021301;28;20041;-80
2022/05/26 04:50:08;;;;;;;48.10;45.47;;;;;;;12.98;100.00;100716.41;5029007;28;20417;-80
2022/05/26 04:52:42;;;;;;;49.25;46.53;;;;;;;13.03;100.00;100724.53;5022962;28;20689;-79
2022/05/26 04:55:11;;;;;;;44.63;42.15;;;;;;;13.21;100.00;100733.81;5022781;28;20045;-80
2022/05/26 04:57:45;;;;;;;44.42;42.00;;;;;;;13.16;100.00;100733.09;5019959;28;20049;-80
2022/05/26 05:00:20;;;;;;;46.83;44.25;;;;;;;13.19;100.00;100738.78;5021366;28;20060;-80
2022/05/26 05:02:53;;;;;;;35.95;33.95;;;;;;;13.23;100.00;100737.09;5020527;28;20068;-80
2022/05/26 05:05:22;;;;;;;34.70;32.75;;;;;;;13.48;100.00;100731.53;5023940;28;20041;-80
2022/05/26 05:07:50;;;;;;;26.88;25.35;;;;;;;13.77;100.00;100729.41;5025834;28;20041;-79
2022/05/26 05:10:28;;;;;;;17.67;16.52;;;;;;;13.95;100.00;100725.00;5024414;28;20045;-80
2022/05/26 05:13:03;;;;;;;13.40;12.50;;;;;;;13.72;100.00;100739.63;5021973;28;20053;-80
2022/05/26 05:15:43;;;;;;;11.18;10.23;;;;;;;13.60;100.00;100748.28;5022077;28;20057;-80
2022/05/26 05:18:16;;;;;;;11.38;10.57;;;;;;;13.84;100.00;100741.91;5026308;28;20054;-80
2022/05/26 05:20:49;;;;;;;9.30;8.60;;;;;;;13.47;100.00;100760.00;5028430;28;20425;-80
2022/05/26 05:23:22;;;;;;;9.07;8.38;;;;;;;13.30;100.00;100765.94;5022413;28;20524;-79
2022/05/26 05:25:53;;;;;;;8.88;8.13;;;;;;;15.38;100.00;100763.41;5025441;28;20116;-79
2022/05/26 05:28:32;;;;;;;7.60;7.00;;;;;;;14.76;100.00;100764.81;5021393;28;20050;-79
2022/05/26 05:31:09;;;;;;;5.32;4.93;;;;;;;15.19;100.00;100757.28;5024539;28;20061;-81
2022/05/26 05:33:46;;;;;;;5.10;4.60;;;;;;;14.96;100.00;100769.03;5015416;28;20046;-79
2022/05/26 05:36:22;;;;;;;3.60;3.20;;;;;;;15.44;100.00;100764.13;5037699;28;20054;-79
2022/05/26 05:38:59;;;;;;;4.82;3.13;;;;;;;14.84;100.00;100771.47;5016007;28;20050;-80
2022/05/26 05:41:28;;;;;;;3.97;2.85;;;;;;;14.64;100.00;100783.69;5022126;28;20057;-81
2022/05/26 05:44:05;;;;;;;4.05;2.70;;;;;;;14.22;100.00;100780.84;5025454;28;20049;-80
2022/05/26 05:49:27;;;;;;;4.13;2.20;;;;;;;14.31;100.00;100783.72;5014271;28;20748;-79
2022/05/26 05:52:07;;;;;;;2.53;2.20;;;;;;;14.51;100.00;100779.78;5026532;28;20382;-79
2022/05/26 05:54:40;;;;;;;2.30;2.05;;;;;;;14.74;100.00;100788.13;5023588;28;20056;-80
2022/05/26 05:57:08;;;;;;;2.35;2.15;;;;;;;14.72;100.00;100793.09;5021040;28;20042;-80
2022/05/26 05:59:43;;;;;;;2.40;2.20;;;;;;;14.59;100.00;100794.69;5041361;28;20057;-80
2022/05/26 06:02:16;;;;;;;2.20;2.00;;;;;;;14.76;100.00;100786.72;5022878;28;20513;-80
2022/05/26 06:04:50;;;;;;;2.60;2.00;;;;;;;14.99;100.00;100785.97;5024731;28;20049;-80
2022/05/26 06:07:20;;;;;;;3.97;1.95;;;;;;;15.11;100.00;100780.78;5026264;28;20076;-81
2022/05/26 06:09:54;;;;;;;2.22;1.70;;;;;;;14.78;100.00;100795.44;5016157;28;20065;-82
2022/05/26 06:12:27;;;;;;;2.25;1.50;;;;;;;14.55;100.00;100789.00;5019098;28;20132;-80
2022/05/26 06:15:02;;;;;;;3.58;1.60;;;;;;;14.86;100.00;100791.16;5024849;28;20061;-82
2022/05/26 06:17:36;;;;;;;2.53;1.50;;;;;;;14.87;100.00;100794.72;5016216;28;20410;-81
2022/05/26 06:20:06;;;;;;;3.55;1.70;;;;;;;14.71;100.00;100805.19;5021548;28;20049;-81
2022/05/26 06:22:41;;;;;;;1.77;1.50;;;;;;;14.89;100.00;100792.50;5022394;28;20053;-81
2022/05/26 06:25:17;;;;;;;2.72;1.60;;;;;;;15.10;100.00;100790.91;5024205;28;20509;-80
2022/05/26 06:30:43;;;;;;;3.10;1.48;;;;;;;15.22;100.00;100795.06;5018081;28;20049;-79
2022/05/26 06:38:52;;;;;;;1.80;1.25;;;;;;;15.26;100.00;100807.84;5035018;28;20061;-80
2022/05/26 06:44:12;;;;;;;3.08;1.40;;;;;;;15.31;100.00;100812.41;5034097;28;20058;-80
2022/05/26 06:46:47;;;;;;;2.53;1.20;;;;;;;15.54;100.00;100812.44;5024571;28;20056;-80
2022/05/26 06:49:15;;;;;;;2.92;1.30;;;;;;;15.73;100.00;100804.84;5055991;28;20057;-79
2022/05/26 06:51:45;;;;;;;2.00;1.10;;;;;;;15.57;100.00;100804.41;5042465;28;20057;-79
2022/05/26 06:54:18;;;;;;;3.72;1.30;;;;;;;14.92;100.00;100817.34;5028788;28;20050;-80
2022/05/26 06:56:52;;;;;;;4.57;1.10;;;;;;;14.73;100.00;100833.88;5028836;28;20055;-80
2022/05/26 06:59:25;;;;;;;2.28;1.00;;;;;;;14.62;100.00;100835.16;5058953;28;20053;-80
2022/05/26 07:02:00;;;;;;;4.57;1.30;;;;;;;14.44;100.00;100837.69;5020152;28;20053;-80
2022/05/26 07:04:33;;;;;;;3.28;1.30;;;;;;;14.44;100.00;100828.66;5025603;28;20053;-80
2022/05/26 07:07:08;;;;;;;2.15;1.10;;;;;;;14.49;100.00;100836.00;5027806;28;20185;-85
2022/05/26 07:09:42;;;;;;;5.93;1.17;;;;;;;14.44;100.00;100836.88;5028879;28;20041;-80
2022/05/26 07:12:15;;;;;;;3.20;1.10;;;;;;;14.48;100.00;100845.31;5028376;28;20494;-81
2022/05/26 07:14:43;;;;;;;2.05;1.08;;;;;;;14.67;100.00;100837.84;5019786;28;20433;-83
2022/05/26 07:17:18;;;;;;;4.30;1.30;;;;;;;14.67;100.00;100842.53;5018097;28;20057;-81
2022/05/26 07:19:53;;;;;;;3.03;1.00;;;;;;;14.45;100.00;100852.19;5030276;28;20071;-81
2022/05/26 07:22:26;;;;;;;2.03;0.95;;;;;;;14.58;100.00;100858.78;5026612;28;20049;-80
2022/05/26 07:24:59;;;;;;;1.63;0.85;;;;;;;14.81;100.00;100861.69;5022495;28;20061;-80
2022/05/26 07:27:33;;;;;;;2.67;0.95;;;;;;;14.66;100.00;100868.28;5030329;28;20053;-79
2022/05/26 07:30:10;;;;;;;1.40;0.90;;;;;;;14.62;100.00;100857.06;5020581;28;20053;-80
2022/05/26 07:32:44;;;;;;;1.42;0.98;;;;;;;14.65;100.00;100867.44;5022077;28;20049;-80
2022/05/26 07:35:17;;;;;;;1.92;0.90;;;;;;;14.74;100.00;100873.06;5036858;28;20418;-80
2022/05/26 07:43:30;;;;;;;2.03;0.90;;;;;;;15.09;100.00;100871.53;5050462;28;20072;-82
2022/05/26 07:45:59;;;;;;;3.40;1.10;;;;;;;15.39;100.00;100879.41;5029013;28;20808;-84
2022/05/26 07:48:33;;;;;;;1.83;1.00;;;;;;;16.00;100.00;100874.47;5021150;28;20053;-82
2022/05/26 07:51:07;;;;;;;2.47;1.05;;;;;;;15.68;100.00;100865.31;5025754;28;21695;-79
2022/05/26 07:53:41;;;;;;;2.85;1.10;;;;;;;15.23;100.00;100871.53;5024352;28;20056;-79
2022/05/26 07:56:14;;;;;;;7.53;1.13;;;;;;;15.08;100.00;100872.66;5027100;28;20041;-80
2022/05/26 07:58:48;;;;;;;2.15;0.88;;;;;;;14.83;100.00;100884.13;5020959;28;20060;-80
2022/05/26 08:01:21;;;;;;;2.03;1.02;;;;;;;14.91;100.00;100889.69;5028024;28;20053;-79
2022/05/26 08:03:55;;;;;;;2.80;0.77;;;;;;;14.95;100.00;100874.25;5027136;28;20045;-79
2022/05/26 08:06:28;;;;;;;4.53;1.00;;;;;;;15.33;100.00;100891.59;5024299;28;20064;-79
2022/05/26 08:08:57;;;;;;;1.83;0.80;;;;;;;15.76;100.00;100893.97;5025711;28;20060;-79
2022/05/26 08:11:30;;;;;;;1.77;0.90;;;;;;;15.85;100.00;100891.31;5024708;28;20056;-81
2022/05/26 08:14:03;;;;;;;5.68;1.00;;;;;;;15.73;100.00;100889.06;5023591;28;20046;-79
2022/05/26 08:16:36;;;;;;;5.72;2.22;;;;;;;15.35;100.00;100892.94;5021773;28;20041;-80
2022/05/26 08:19:11;;;;;;;2.05;0.70;;;;;;;15.38;100.00;100899.72;5021379;28;20045;-78
2022/05/26 08:21:44;;;;;;;1.50;0.55;;;;;;;15.17;100.00;100908.38;5018296;28;20041;-80
2022/05/26 08:24:19;;;;;;;2.50;0.77;;;;;;;14.90;100.00;100914.66;5026767;28;20041;-79
2022/05/26 08:26:53;;;;;;;0.90;0.40;;;;;;;14.88;100.00;100927.88;5023567;28;20057;-79
2022/05/26 08:29:26;;;;;;;1.95;0.60;;;;;;;14.88;100.00;100928.66;5026596;28;20046;-80
2022/05/26 08:32:00;;;;;;;3.33;0.70;;;;;;;15.02;100.00;100931.41;5023800;28;20544;-80
2022/05/26 08:34:34;;;;;;;1.25;0.52;;;;;;;15.28;100.00;100928.19;5027997;28;20056;-79
2022/05/26 08:37:03;;;;;;;0.55;0.50;;;;;;;15.69;100.00;100929.22;5023668;28;20045;-80
2022/05/26 08:39:32;;;;;;;2.92;0.65;;;;;;;15.82;100.00;100925.69;5025649;28;20049;-79
2022/05/26 08:42:06;;;;;;;1.70;0.60;;;;;;;15.73;100.00;100924.75;5024539;28;20478;-78
2022/05/26 08:44:36;;;;;;;1.75;0.70;;;;;;;15.63;100.00;100925.78;5017947;28;20057;-79
2022/05/26 08:47:11;;;;;;;2.08;0.75;;;;;;;15.82;100.00;100944.88;5023709;28;20049;-80
2022/05/26 08:49:42;;;;;;;3.92;0.70;;;;;;;15.46;100.00;100946.44;5021413;28;20052;-80
2022/05/26 08:52:20;;;;;;;1.17;0.60;;;;;;;15.39;100.00;100953.47;5023191;28;20057;-80
2022/05/26 08:55:01;;;;;;;2.35;0.60;;;;;;;15.21;100.00;100949.72;5022460;28;20057;-80
2022/05/26 08:57:41;;;;;;;0.80;0.50;;;;;;;15.33;100.00;100949.19;5025030;28;20060;-81
2022/05/26 09:00:17;;;;;;;1.40;0.60;;;;;;;15.59;100.00;100958.53;5056609;28;20057;-80
2022/05/26 09:02:54;;;;;;;0.67;0.47;;;;;;;15.81;100.00;100956.97;5022300;28;20917;-81
2022/05/26 09:05:33;;;;;;;1.08;0.52;;;;;;;15.77;100.00;100953.19;5022302;28;20052;-82
2022/05/26 09:13:44;;;;;;;1.02;0.50;;;;;;;15.41;100.00;100963.00;5019063;28;20780;-79
2022/05/26 09:16:18;;;;;;;3.72;0.60;;;;;;;15.93;100.00;100967.44;5019756;28;20049;-78
2022/05/26 09:19:07;;;;;;;2.10;0.63;;;;;;;16.07;100.00;100979.16;5021916;28;20068;-79
2022/05/26 09:21:41;;;;;;;1.88;0.55;;;;;;;15.89;100.00;100977.41;5023426;28;20056;-78
2022/05/26 09:24:18;;;;;;;1.75;0.52;;;;;;;15.77;100.00;100967.75;5050607;28;20045;-78
2022/05/26 09:26:55;;;;;;;4.47;2.15;;;;;;;16.11;98.79;100982.91;5022488;28;20609;-78
2022/05/26 09:29:31;;;;;;;1.25;0.38;;;;;;;15.64;96.91;100987.78;5023809;28;20041;-79
2022/05/26 09:32:06;;;;;;;1.40;0.60;;;;;;;15.37;93.11;100991.34;5052295;28;20053;-77
2022/05/26 09:34:39;;;;;;;2.17;0.63;;;;;;;15.25;99.47;100989.91;5024336;28;20060;-78
2022/05/26 09:37:38;;;;;;;1.50;0.43;;;;;;;15.33;100.00;100998.53;5025120;28;20041;-79
2022/05/26 09:40:15;;;;;;;2.47;0.63;;;;;;;15.25;100.00;100997.34;5033877;28;20084;-78
2022/05/26 09:42:52;;;;;;;0.73;0.40;;;;;;;15.13;100.00;101003.31;5023655;28;20057;-79
2022/05/26 09:45:25;;;;;;;5.35;0.77;;;;;;;15.09;100.00;101005.03;5022683;28;20065;-79
2022/05/26 09:48:01;;;;;;;1.60;0.43;;;;;;;15.21;100.00;101007.28;5021565;28;20063;-79
2022/05/26 09:50:48;;;;;;;1.42;0.50;;;;;;;15.45;100.00;101002.44;5039728;28;20057;-79
2022/05/26 09:53:33;;;;;;;3.85;0.80;;;;;;;15.95;100.00;101009.09;5036564;28;20068;-79
2022/05/26 09:56:02;;;;;;;3.80;0.80;;;;;;;16.08;100.00;101002.75;5021432;28;20068;-78
2022/05/26 09:58:39;;;;;;;3.42;0.70;;;;;;;15.74;99.50;101016.91;5024874;28;20049;-78
2022/05/26 10:01:37;;;;;;;1.08;0.52;;;;;;;15.78;100.00;101018.78;5033408;28;20053;-79
2022/05/26 10:04:25;;;;;;;1.90;0.70;;;;;;;15.92;100.00;101017.94;5009011;28;20042;-78
2022/05/26 10:07:02;;;;;;;1.60;0.50;;;;;;;15.72;100.00;101024.66;5004907;28;20049;-78
2022/05/26 10:09:42;;;;;;;2.10;0.50;;;;;;;15.96;98.40;101013.47;5010454;28;20049;-79
2022/05/26 10:12:26;;;;;;;1.75;0.40;;;;;;;15.79;100.00;101019.56;5005670;28;20053;-79
2022/05/26 10:15:07;;;;;;;2.75;0.68;;;;;;;15.91;94.90;101032.78;5006730;28;20045;-80
2022/05/26 10:17:57;;;;;;;0.55;0.40;;;;;;;16.00;90.56;101022.72;5011523;28;20061;-79
2022/05/26 10:20:44;;;;;;;1.25;0.40;;;;;;;16.13;90.00;101021.06;5017921;28;20072;-79
2022/05/26 10:24:03;;;;;;;1.63;0.50;;;;;;;15.71;92.62;101034.00;5015099;28;20048;-79
2022/05/26 10:26:49;;;;;;;0.80;0.47;;;;;;;16.59;93.54;101028.22;5010905;28;20065;-79
2022/05/26 10:29:45;;;;;;;0.50;0.40;;;;;;;16.43;90.61;101021.47;5010657;28;20058;-79
2022/05/26 10:32:26;;;;;;;1.73;0.45;;;;;;;16.53;89.45;101023.16;5027471;28;20870;-79
2022/05/26 10:35:08;;;;;;;0.88;0.50;;;;;;;16.70;97.05;101026.03;5015253;28;20056;-80
2022/05/26 10:37:50;;;;;;;;;;;;;;;16.93;92.49;101018.63;5012321;28;20049;-79
2022/05/26 10:40:38;;;;;;;0.93;0.43;;;;;;;17.21;82.24;101020.34;5009527;28;19929;-79
2022/05/26 10:43:14;;;;;;;0.70;0.43;;;;;;;17.44;74.72;101007.34;5009449;28;20060;-80
2022/05/26 10:45:48;;;;;;;1.20;0.50;;;;;;;17.20;81.32;101005.00;5008479;28;20675;-80
2022/05/26 10:48:30;;;;;;;1.85;0.68;;;;;;;17.40;80.81;101015.44;5016746;28;20053;-79
2022/05/26 10:51:10;;;;;;;0.73;0.40;;;;;;;17.44;85.53;101008.19;5022608;28;20061;-79
2022/05/26 10:53:50;;;;;;;0.52;0.45;;;;;;;17.18;78.43;101019.06;5024082;28;22164;-79
2022/05/26 10:56:31;;;;;;;1.10;0.43;;;;;;;17.12;73.54;101001.06;5024043;28;20052;-79
2022/05/26 10:59:11;;;;;;;2.17;0.50;;;;;;;16.82;82.36;101012.53;5005656;28;20928;-78
2022/05/26 11:01:49;;;;;;;1.27;0.52;;;;;;;16.79;88.30;101015.91;5007978;28;20053;-80
2022/05/26 11:04:30;;;;;;;3.90;0.57;;;;;;;17.02;85.45;101020.59;5024957;28;20057;-79
2022/05/26 11:07:10;;;;;;;0.55;0.43;;;;;;;16.92;100.00;101019.75;5034232;28;20057;-80
2022/05/26 11:09:48;;;;;;;5.88;1.85;;;;;;;16.92;98.57;101018.94;5016780;28;20045;-79
2022/05/26 11:12:29;;;;;;;3.08;0.60;;;;;;;16.64;86.91;101024.53;5023870;28;20966;-80
2022/05/26 11:18:03;;;;;;;0.50;0.40;;;;;;;17.62;91.56;101009.03;5011106;28;20053;-80
2022/05/26 11:20:41;;;;;;;0.95;0.50;;;;;;;17.56;94.60;101015.00;5029154;28;20111;-79
2022/05/26 11:23:09;;;;;;;0.82;0.40;;;;;;;18.06;99.15;101022.09;5030165;28;20053;-79
2022/05/26 11:25:54;;;;;;;0.40;0.40;;;;;;;18.14;88.17;101016.59;5015943;28;20064;-80
2022/05/26 11:28:32;;;;;;;1.33;0.50;;;;;;;17.98;95.33;101037.47;5023736;28;20078;-80
2022/05/26 11:36:55;;;;;;;1.35;0.38;;;;;;;17.14;87.44;101029.88;5020229;28;20060;-80
2022/05/26 11:39:34;;;;;;;1.42;0.52;;;;;;;16.65;97.27;101034.41;5007539;28;20041;-80
2022/05/26 11:42:11;;;;;;;0.77;0.40;;;;;;;16.41;85.42;101038.25;5030184;28;20053;-79
2022/05/26 11:44:54;;;;;;;1.05;0.45;;;;;;;16.49;94.04;101040.28;5028283;28;20061;-79
2022/05/26 11:47:35;;;;;;;4.38;0.85;;;;;;;16.39;88.04;101042.44;5015210;28;20049;-80
2022/05/26 11:50:50;;;;;;;1.15;0.50;;;;;;;16.07;91.78;101036.81;5012311;28;20053;-80
2022/05/26 11:53:39;;;;;;;1.35;0.55;;;;;;;16.35;88.06;101030.44;5031438;28;20057;-80
2022/05/26 11:56:50;;;;;;;1.00;0.50;;;;;;;16.82;81.86;101030.94;5016984;28;20068;-79
2022/05/26 11:59:47;;;;;;;0.60;0.40;;;;;;;16.76;87.73;101023.97;5019081;28;20064;-80
2022/05/26 12:02:32;;;;;;;1.00;0.45;;;;;;;16.82;97.86;101033.69;5014070;28;20061;-79
2022/05/26 12:05:47;;;;;;;3.10;0.50;;;;;;;16.64;83.46;101035.50;5017047;28;20048;-80
2022/05/26 12:08:35;;;;;;;1.00;0.47;;;;;;;16.56;88.29;101026.09;5027290;28;20049;-78
2022/05/26 12:11:11;;;;;;;3.75;0.50;;;;;;;16.54;76.29;101022.03;5044189;28;20053;-79
2022/05/26 12:13:41;;;;;;;2.88;0.63;;;;;;;16.61;78.85;101027.91;5028564;28;20418;-79
2022/05/26 12:16:22;;;;;;;0.73;0.40;;;;;;;16.72;84.20;101026.50;5009787;28;20069;-79
2022/05/26 12:19:00;;;;;;;1.85;0.60;;;;;;;16.65;97.69;101034.41;5011387;28;20046;-79
2022/05/26 12:21:45;;;;;;;1.05;0.30;;;;;;;16.52;83.76;101033.34;5029645;28;20053;-79
2022/05/26 12:24:49;;;;;;;1.00;0.40;;;;;;;16.04;81.88;101040.19;5015035;28;20048;-79
2022/05/26 12:28:02;;;;;;;2.10;0.40;;;;;;;15.97;91.94;101059.81;5014214;28;20067;-80
2022/05/26 12:30:58;;;;;;;3.90;1.05;;;;;;;15.97;89.46;101048.84;5013198;28;20406;-79
2022/05/26 12:33:49;;;;;;;1.63;0.65;;;;;;;15.85;97.18;101051.28;5017320;28;20060;-81
2022/05/26 12:36:36;;;;;;;0.40;0.30;;;;;;;15.55;96.86;101055.44;5014650;28;20057;-79
2022/05/26 12:39:27;;;;;;;0.75;0.30;;;;;;;15.52;96.81;101043.13;5017901;28;20494;-79
2022/05/26 12:42:07;;;;;;;0.75;0.50;;;;;;;15.61;93.28;101043.25;5028300;28;20473;-80
2022/05/26 12:45:08;;;;;;;1.48;0.70;;;;;;;15.63;96.10;101057.47;5017054;28;20050;-80
2022/05/26 12:47:58;;;;;;;2.05;0.47;;;;;;;15.50;99.95;101052.81;5013146;28;20060;-79